sensor_id;sensor_type;location;lat;lon;timestamp;pressure;altitude;pressure_sealevel;temperature;humidity
34658;BME280;20865;43.312;27.152;2023-11-21T00:00:00;100288.33;;;9.99;44.92
34658;BME280;20865;43.312;27.152;2023-11-21T00:02:28;100286.61;;;9.97;44.96
34658;BME280;20865;43.312;27.152;2023-11-21T00:04:56;100280.93;;;9.94;44.80
34658;BME280;20865;43.312;27.152;2023-11-21T00:07:23;100287.60;;;9.94;44.85
34658;BME280;20865;43.312;27.152;2023-11-21T00:09:51;100285.02;;;9.91;44.63
34658;BME280;20865;43.312;27.152;2023-11-21T00:12:18;100295.22;;;9.92;44.69
34658;BME280;20865;43.312;27.152;2023-11-21T00:14:47;100299.28;;;9.90;45.02
34658;BME280;20865;43.312;27.152;2023-11-21T00:17:14;100286.89;;;9.88;44.65
34658;BME280;20865;43.312;27.152;2023-11-21T00:19:42;100287.45;;;9.83;44.34
34658;BME280;20865;43.312;27.152;2023-11-21T00:22:10;100280.07;;;9.76;44.18
34658;BME280;20865;43.312;27.152;2023-11-21T00:24:37;100277.54;;;9.71;44.18
34658;BME280;20865;43.312;27.152;2023-11-21T00:27:05;100280.27;;;9.70;44.27
34658;BME280;20865;43.312;27.152;2023-11-21T00:29:32;100277.61;;;9.68;44.34
34658;BME280;20865;43.312;27.152;2023-11-21T00:32:00;100281.16;;;9.69;44.55
34658;BME280;20865;43.312;27.152;2023-11-21T00:34:28;100269.27;;;9.66;44.83
34658;BME280;20865;43.312;27.152;2023-11-21T00:36:56;100271.95;;;9.64;45.29
34658;BME280;20865;43.312;27.152;2023-11-21T00:39:23;100277.61;;;9.68;45.18
34658;BME280;20865;43.312;27.152;2023-11-21T00:41:52;100278.47;;;9.70;44.41
34658;BME280;20865;43.312;27.152;2023-11-21T00:44:20;100278.08;;;9.68;44.35
34658;BME280;20865;43.312;27.152;2023-11-21T00:46:47;100277.27;;;9.66;44.25
34658;BME280;20865;43.312;27.152;2023-11-21T00:49:15;100269.67;;;9.67;44.03
34658;BME280;20865;43.312;27.152;2023-11-21T00:51:43;100281.34;;;9.63;43.96
34658;BME280;20865;43.312;27.152;2023-11-21T00:54:11;100277.34;;;9.63;44.03
34658;BME280;20865;43.312;27.152;2023-11-21T00:56:39;100289.42;;;9.60;44.13
34658;BME280;20865;43.312;27.152;2023-11-21T00:59:07;100281.03;;;9.57;43.99
34658;BME280;20865;43.312;27.152;2023-11-21T01:01:35;100281.52;;;9.55;44.13
34658;BME280;20865;43.312;27.152;2023-11-21T01:04:04;100283.37;;;9.53;44.63
34658;BME280;20865;43.312;27.152;2023-11-21T01:06:33;100275.38;;;9.53;45.09
34658;BME280;20865;43.312;27.152;2023-11-21T01:09:01;100270.50;;;9.52;44.71
34658;BME280;20865;43.312;27.152;2023-11-21T01:11:30;100272.38;;;9.49;44.36
34658;BME280;20865;43.312;27.152;2023-11-21T01:13:58;100274.65;;;9.46;44.24
34658;BME280;20865;43.312;27.152;2023-11-21T01:16:26;100278.98;;;9.50;44.21
34658;BME280;20865;43.312;27.152;2023-11-21T01:18:54;100275.05;;;9.47;44.62
34658;BME280;20865;43.312;27.152;2023-11-21T01:21:21;100268.34;;;9.33;45.06
34658;BME280;20865;43.312;27.152;2023-11-21T01:23:49;100270.15;;;9.30;45.28
34658;BME280;20865;43.312;27.152;2023-11-21T01:26:17;100266.15;;;9.30;45.29
34658;BME280;20865;43.312;27.152;2023-11-21T01:28:44;100253.80;;;9.28;45.64
34658;BME280;20865;43.312;27.152;2023-11-21T01:31:12;100252.88;;;9.29;45.64
34658;BME280;20865;43.312;27.152;2023-11-21T01:33:39;100252.41;;;9.29;45.68
34658;BME280;20865;43.312;27.152;2023-11-21T01:36:08;100252.39;;;9.47;45.01
34658;BME280;20865;43.312;27.152;2023-11-21T01:38:36;100252.83;;;9.48;45.19
34658;BME280;20865;43.312;27.152;2023-11-21T01:41:03;100250.16;;;9.48;45.32
34658;BME280;20865;43.312;27.152;2023-11-21T01:43:32;100246.59;;;9.48;45.31
34658;BME280;20865;43.312;27.152;2023-11-21T01:46:01;100248.37;;;9.49;44.95
34658;BME280;20865;43.312;27.152;2023-11-21T01:48:29;100253.72;;;9.47;44.70
34658;BME280;20865;43.312;27.152;2023-11-21T01:50:57;100249.78;;;9.46;43.92
34658;BME280;20865;43.312;27.152;2023-11-21T01:53:26;100256.13;;;9.40;43.99
34658;BME280;20865;43.312;27.152;2023-11-21T01:55:56;100260.59;;;9.40;44.28
34658;BME280;20865;43.312;27.152;2023-11-21T01:58:24;100255.72;;;9.39;44.52
34658;BME280;20865;43.312;27.152;2023-11-21T02:00:51;100249.93;;;9.40;44.45
34658;BME280;20865;43.312;27.152;2023-11-21T02:03:21;100252.65;;;9.38;44.39
34658;BME280;20865;43.312;27.152;2023-11-21T02:05:48;100254.06;;;9.35;44.18
34658;BME280;20865;43.312;27.152;2023-11-21T02:08:16;100247.48;;;9.30;44.06
34658;BME280;20865;43.312;27.152;2023-11-21T02:10:44;100245.73;;;9.31;44.21
34658;BME280;20865;43.312;27.152;2023-11-21T02:13:11;100241.83;;;9.26;44.55
34658;BME280;20865;43.312;27.152;2023-11-21T02:15:39;100243.13;;;9.28;45.04
34658;BME280;20865;43.312;27.152;2023-11-21T02:18:07;100249.80;;;9.28;45.47
34658;BME280;20865;43.312;27.152;2023-11-21T02:20:37;100255.06;;;9.31;45.51
34658;BME280;20865;43.312;27.152;2023-11-21T02:23:05;100261.74;;;9.29;45.79
34658;BME280;20865;43.312;27.152;2023-11-21T02:25:34;100275.39;;;9.35;45.85
34658;BME280;20865;43.312;27.152;2023-11-21T02:28:03;100277.67;;;9.33;45.23
34658;BME280;20865;43.312;27.152;2023-11-21T02:30:33;100272.33;;;9.33;44.94
34658;BME280;20865;43.312;27.152;2023-11-21T02:33:01;100269.33;;;9.28;44.77
34658;BME280;20865;43.312;27.152;2023-11-21T02:35:29;100256.47;;;9.28;44.80
34658;BME280;20865;43.312;27.152;2023-11-21T02:37:57;100268.08;;;9.25;44.61
34658;BME280;20865;43.312;27.152;2023-11-21T02:40:25;100264.61;;;9.22;44.38
34658;BME280;20865;43.312;27.152;2023-11-21T02:42:53;100268.14;;;9.22;44.75
34658;BME280;20865;43.312;27.152;2023-11-21T02:45:21;100265.02;;;9.23;44.99
34658;BME280;20865;43.312;27.152;2023-11-21T02:47:50;100268.08;;;9.25;45.36
34658;BME280;20865;43.312;27.152;2023-11-21T02:50:19;100274.27;;;9.26;45.17
34658;BME280;20865;43.312;27.152;2023-11-21T02:52:49;100260.92;;;9.27;44.78
34658;BME280;20865;43.312;27.152;2023-11-21T02:55:17;100267.59;;;9.27;45.17
34658;BME280;20865;43.312;27.152;2023-11-21T02:57:45;100273.41;;;9.25;44.66
34658;BME280;20865;43.312;27.152;2023-11-21T03:00:13;100271.80;;;9.18;44.07
34658;BME280;20865;43.312;27.152;2023-11-21T03:02:41;100273.67;;;9.15;44.33
34658;BME280;20865;43.312;27.152;2023-11-21T03:05:10;100271.15;;;9.09;44.58
34658;BME280;20865;43.312;27.152;2023-11-21T03:07:39;100272.00;;;9.11;44.77
34658;BME280;20865;43.312;27.152;2023-11-21T03:10:08;100288.80;;;9.14;45.54
34658;BME280;20865;43.312;27.152;2023-11-21T03:12:38;100268.27;;;9.18;45.74
34658;BME280;20865;43.312;27.152;2023-11-21T03:15:06;100269.61;;;9.18;45.88
34658;BME280;20865;43.312;27.152;2023-11-21T03:17:35;100279.75;;;9.20;45.58
34658;BME280;20865;43.312;27.152;2023-11-21T03:20:03;100260.27;;;9.18;45.34
34658;BME280;20865;43.312;27.152;2023-11-21T03:22:31;100273.16;;;9.17;45.58
34658;BME280;20865;43.312;27.152;2023-11-21T03:24:59;100266.87;;;9.21;45.67
34658;BME280;20865;43.312;27.152;2023-11-21T03:27:26;100265.07;;;9.21;45.25
34658;BME280;20865;43.312;27.152;2023-11-21T03:29:54;100272.67;;;9.19;44.76
34658;BME280;20865;43.312;27.152;2023-11-21T03:32:22;100255.42;;;9.16;44.82
34658;BME280;20865;43.312;27.152;2023-11-21T03:34:55;100257.17;;;9.17;44.89
34658;BME280;20865;43.312;27.152;2023-11-21T03:37:25;100257.61;;;9.18;44.74
34658;BME280;20865;43.312;27.152;2023-11-21T03:39:56;100267.80;;;9.18;44.60
34658;BME280;20865;43.312;27.152;2023-11-21T03:42:23;100263.88;;;9.15;44.77
34658;BME280;20865;43.312;27.152;2023-11-21T03:44:54;100263.03;;;9.13;44.98
34658;BME280;20865;43.312;27.152;2023-11-21T03:47:22;100266.67;;;9.11;45.11
34658;BME280;20865;43.312;27.152;2023-11-21T03:49:50;100267.54;;;9.11;45.40
34658;BME280;20865;43.312;27.152;2023-11-21T03:52:17;100262.95;;;9.16;45.21
34658;BME280;20865;43.312;27.152;2023-11-21T03:54:45;100260.30;;;9.16;45.10
34658;BME280;20865;43.312;27.152;2023-11-21T03:57:14;100259.81;;;9.18;44.65
34658;BME280;20865;43.312;27.152;2023-11-21T03:59:42;100263.83;;;9.17;44.40
34658;BME280;20865;43.312;27.152;2023-11-21T04:02:10;100264.83;;;9.13;44.25
34658;BME280;20865;43.312;27.152;2023-11-21T04:04:38;100268.89;;;9.10;44.39
34658;BME280;20865;43.312;27.152;2023-11-21T04:07:05;100275.22;;;9.05;44.51
34658;BME280;20865;43.312;27.152;2023-11-21T04:09:33;100268.63;;;9.02;44.42
34658;BME280;20865;43.312;27.152;2023-11-21T04:12:03;100266.42;;;9.02;44.42
34658;BME280;20865;43.312;27.152;2023-11-21T04:14:30;100277.16;;;8.99;44.41
34658;BME280;20865;43.312;27.152;2023-11-21T04:16:58;100278.53;;;8.97;44.32
34658;BME280;20865;43.312;27.152;2023-11-21T04:19:25;100281.27;;;8.94;44.15
34658;BME280;20865;43.312;27.152;2023-11-21T04:21:53;100277.80;;;8.91;44.11
34658;BME280;20865;43.312;27.152;2023-11-21T04:24:21;100278.88;;;8.82;43.84
34658;BME280;20865;43.312;27.152;2023-11-21T04:26:48;100281.94;;;8.85;43.77
34658;BME280;20865;43.312;27.152;2023-11-21T04:29:17;100278.46;;;8.81;43.85
34658;BME280;20865;43.312;27.152;2023-11-21T04:31:46;100278.07;;;8.78;43.88
34658;BME280;20865;43.312;27.152;2023-11-21T04:34:15;100281.64;;;8.79;43.82
34658;BME280;20865;43.312;27.152;2023-11-21T04:36:43;100282.44;;;8.82;43.84
34658;BME280;20865;43.312;27.152;2023-11-21T04:39:11;100286.97;;;8.79;43.90
34658;BME280;20865;43.312;27.152;2023-11-21T04:41:38;100293.69;;;8.76;44.21
34658;BME280;20865;43.312;27.152;2023-11-21T04:44:06;100295.91;;;8.75;44.34
34658;BME280;20865;43.312;27.152;2023-11-21T04:46:34;100289.62;;;8.79;44.35
34658;BME280;20865;43.312;27.152;2023-11-21T04:49:01;100293.18;;;8.78;44.43
34658;BME280;20865;43.312;27.152;2023-11-21T04:51:29;100295.84;;;8.78;44.51
34658;BME280;20865;43.312;27.152;2023-11-21T04:53:58;100293.16;;;8.79;44.49
34658;BME280;20865;43.312;27.152;2023-11-21T04:56:26;100300.23;;;8.80;44.16
34658;BME280;20865;43.312;27.152;2023-11-21T04:58:55;100295.91;;;8.75;43.95
34658;BME280;20865;43.312;27.152;2023-11-21T05:01:22;100296.42;;;8.73;43.61
34658;BME280;20865;43.312;27.152;2023-11-21T05:03:50;100297.23;;;8.75;43.73
34658;BME280;20865;43.312;27.152;2023-11-21T05:06:18;100295.04;;;8.74;43.64
34658;BME280;20865;43.312;27.152;2023-11-21T05:08:46;100296.44;;;8.71;43.62
34658;BME280;20865;43.312;27.152;2023-11-21T05:11:29;100295.61;;;8.69;43.46
34658;BME280;20865;43.312;27.152;2023-11-21T05:13:53;100302.75;;;8.67;43.92
34658;BME280;20865;43.312;27.152;2023-11-21T05:16:24;100301.40;;;8.69;43.92
34658;BME280;20865;43.312;27.152;2023-11-21T05:18:52;100305.88;;;8.67;44.21
34658;BME280;20865;43.312;27.152;2023-11-21T05:21:19;100314.32;;;8.66;44.31
34658;BME280;20865;43.312;27.152;2023-11-21T05:23:47;100309.75;;;8.71;44.22
34658;BME280;20865;43.312;27.152;2023-11-21T05:26:14;100308.87;;;8.72;44.03
34658;BME280;20865;43.312;27.152;2023-11-21T05:28:42;100307.14;;;8.70;43.64
34658;BME280;20865;43.312;27.152;2023-11-21T05:31:10;100321.33;;;8.70;43.70
34658;BME280;20865;43.312;27.152;2023-11-21T05:33:37;100322.20;;;8.71;43.94
34658;BME280;20865;43.312;27.152;2023-11-21T05:36:06;100329.30;;;8.72;43.80
34658;BME280;20865;43.312;27.152;2023-11-21T05:38:35;100325.78;;;8.70;43.52
34658;BME280;20865;43.312;27.152;2023-11-21T05:41:03;100329.78;;;8.70;43.69
34658;BME280;20865;43.312;27.152;2023-11-21T05:43:31;100330.64;;;8.72;44.02
34658;BME280;20865;43.312;27.152;2023-11-21T05:46:00;100328.80;;;8.74;44.29
34658;BME280;20865;43.312;27.152;2023-11-21T05:48:28;100329.19;;;8.76;44.58
34658;BME280;20865;43.312;27.152;2023-11-21T05:50:55;100329.59;;;8.79;44.75
34658;BME280;20865;43.312;27.152;2023-11-21T05:53:23;100336.48;;;8.88;45.03
34658;BME280;20865;43.312;27.152;2023-11-21T05:55:51;100335.89;;;8.94;45.17
34658;BME280;20865;43.312;27.152;2023-11-21T05:58:18;100340.51;;;9.05;45.46
34658;BME280;20865;43.312;27.152;2023-11-21T06:00:47;100339.20;;;9.41;45.55
34658;BME280;20865;43.312;27.152;2023-11-21T06:03:15;100339.80;;;9.88;44.48
34658;BME280;20865;43.312;27.152;2023-11-21T06:05:43;100338.16;;;10.33;43.58
34658;BME280;20865;43.312;27.152;2023-11-21T06:08:30;100337.81;;;10.75;42.67
34658;BME280;20865;43.312;27.152;2023-11-21T06:10:58;100344.40;;;11.21;42.10
34658;BME280;20865;43.312;27.152;2023-11-21T06:13:25;100340.41;;;11.61;41.48
34658;BME280;20865;43.312;27.152;2023-11-21T06:15:54;100343.67;;;11.97;40.80
34658;BME280;20865;43.312;27.152;2023-11-21T06:18:22;100341.58;;;12.30;40.35
34658;BME280;20865;43.312;27.152;2023-11-21T06:20:50;100344.86;;;12.62;39.88
34658;BME280;20865;43.312;27.152;2023-11-21T06:23:19;100342.58;;;12.86;39.59
34658;BME280;20865;43.312;27.152;2023-11-21T06:25:47;100347.45;;;13.10;39.40
34658;BME280;20865;43.312;27.152;2023-11-21T06:28:15;100340.27;;;13.34;39.33
34658;BME280;20865;43.312;27.152;2023-11-21T06:30:44;100334.01;;;13.56;38.83
34658;BME280;20865;43.312;27.152;2023-11-21T06:33:11;100338.94;;;13.56;38.47
34658;BME280;20865;43.312;27.152;2023-11-21T06:35:39;100341.66;;;13.55;38.74
34658;BME280;20865;43.312;27.152;2023-11-21T06:38:07;100341.52;;;13.48;39.35
34658;BME280;20865;43.312;27.152;2023-11-21T06:40:35;100352.50;;;13.42;39.53
34658;BME280;20865;43.312;27.152;2023-11-21T06:43:03;100344.48;;;13.30;39.53
34658;BME280;20865;43.312;27.152;2023-11-21T06:45:32;100343.73;;;13.26;40.03
34658;BME280;20865;43.312;27.152;2023-11-21T06:48:00;100344.84;;;13.32;40.08
34658;BME280;20865;43.312;27.152;2023-11-21T06:50:28;100346.30;;;13.29;40.02
34658;BME280;20865;43.312;27.152;2023-11-21T06:52:56;100337.59;;;13.23;39.91
34658;BME280;20865;43.312;27.152;2023-11-21T06:55:23;100342.45;;;13.13;40.31
34658;BME280;20865;43.312;27.152;2023-11-21T06:57:51;100341.17;;;13.00;40.70
34658;BME280;20865;43.312;27.152;2023-11-21T07:00:19;100348.47;;;12.96;41.38
34658;BME280;20865;43.312;27.152;2023-11-21T07:02:47;100349.81;;;13.08;41.60
34658;BME280;20865;43.312;27.152;2023-11-21T07:05:14;100359.44;;;13.25;41.78
34658;BME280;20865;43.312;27.152;2023-11-21T07:07:44;100347.40;;;13.46;41.97
34658;BME280;20865;43.312;27.152;2023-11-21T07:10:12;100345.98;;;13.69;41.56
34658;BME280;20865;43.312;27.152;2023-11-21T07:12:40;100349.18;;;13.99;41.45
34658;BME280;20865;43.312;27.152;2023-11-21T07:15:08;100341.44;;;14.22;40.97
34658;BME280;20865;43.312;27.152;2023-11-21T07:17:36;100327.73;;;14.39;40.66
34658;BME280;20865;43.312;27.152;2023-11-21T07:20:04;100333.10;;;14.59;40.70
34658;BME280;20865;43.312;27.152;2023-11-21T07:22:33;100331.93;;;14.75;40.38
34658;BME280;20865;43.312;27.152;2023-11-21T07:25:00;100327.20;;;14.80;40.57
34658;BME280;20865;43.312;27.152;2023-11-21T07:27:28;100325.96;;;14.87;40.88
34658;BME280;20865;43.312;27.152;2023-11-21T07:29:55;100338.11;;;14.96;41.10
34658;BME280;20865;43.312;27.152;2023-11-21T07:32:24;100332.75;;;15.05;41.06
34658;BME280;20865;43.312;27.152;2023-11-21T07:34:51;100333.52;;;15.17;41.26
34658;BME280;20865;43.312;27.152;2023-11-21T07:37:19;100324.98;;;15.26;41.63
34658;BME280;20865;43.312;27.152;2023-11-21T07:39:47;100320.98;;;15.35;41.85
34658;BME280;20865;43.312;27.152;2023-11-21T07:42:14;100327.33;;;15.42;41.66
34658;BME280;20865;43.312;27.152;2023-11-21T07:44:43;100324.54;;;15.44;41.49
34658;BME280;20865;43.312;27.152;2023-11-21T07:47:12;100325.65;;;15.40;41.76
34658;BME280;20865;43.312;27.152;2023-11-21T07:49:40;100321.13;;;15.32;42.11
34658;BME280;20865;43.312;27.152;2023-11-21T07:52:09;100333.87;;;15.28;42.58
34658;BME280;20865;43.312;27.152;2023-11-21T07:54:37;100329.25;;;15.21;43.04
34658;BME280;20865;43.312;27.152;2023-11-21T07:57:05;100327.72;;;15.16;42.97
34658;BME280;20865;43.312;27.152;2023-11-21T07:59:34;100323.77;;;15.14;43.13
34658;BME280;20865;43.312;27.152;2023-11-21T08:02:01;100331.60;;;15.10;43.37
34658;BME280;20865;43.312;27.152;2023-11-21T08:04:29;100324.93;;;15.09;43.36
34658;BME280;20865;43.312;27.152;2023-11-21T08:06:58;100320.80;;;15.01;44.00
34658;BME280;20865;43.312;27.152;2023-11-21T08:09:26;100315.89;;;15.01;44.01
34658;BME280;20865;43.312;27.152;2023-11-21T08:11:54;100319.22;;;15.06;44.17
34658;BME280;20865;43.312;27.152;2023-11-21T08:14:21;100325.65;;;15.12;44.28
34658;BME280;20865;43.312;27.152;2023-11-21T08:16:51;100325.51;;;15.15;44.13
34658;BME280;20865;43.312;27.152;2023-11-21T08:19:18;100318.78;;;15.15;44.29
34658;BME280;20865;43.312;27.152;2023-11-21T08:21:47;100317.20;;;15.20;43.82
34658;BME280;20865;43.312;27.152;2023-11-21T08:24:14;100321.95;;;15.23;43.47
34658;BME280;20865;43.312;27.152;2023-11-21T08:26:42;100317.30;;;15.27;43.23
34658;BME280;20865;43.312;27.152;2023-11-21T08:29:10;100318.83;;;15.33;43.13
34658;BME280;20865;43.312;27.152;2023-11-21T08:31:38;100313.11;;;15.30;43.19
34658;BME280;20865;43.312;27.152;2023-11-21T08:34:05;100319.01;;;15.38;43.06
34658;BME280;20865;43.312;27.152;2023-11-21T08:36:33;100315.98;;;15.36;42.87
34658;BME280;20865;43.312;27.152;2023-11-21T08:39:01;100313.30;;;15.36;43.27
34658;BME280;20865;43.312;27.152;2023-11-21T08:41:34;100319.10;;;15.45;43.17
34658;BME280;20865;43.312;27.152;2023-11-21T08:44:03;100314.91;;;15.48;43.57
34658;BME280;20865;43.312;27.152;2023-11-21T08:46:34;100314.44;;;15.49;44.16
34658;BME280;20865;43.312;27.152;2023-11-21T08:49:03;100306.89;;;15.47;43.99
34658;BME280;20865;43.312;27.152;2023-11-21T08:51:31;100305.25;;;15.53;43.17
34658;BME280;20865;43.312;27.152;2023-11-21T08:53:59;100302.95;;;15.54;43.13
34658;BME280;20865;43.312;27.152;2023-11-21T08:56:28;100299.62;;;15.58;43.71
34658;BME280;20865;43.312;27.152;2023-11-21T08:58:56;100287.59;;;15.65;43.91
34658;BME280;20865;43.312;27.152;2023-11-21T09:01:23;100283.66;;;15.72;44.05
34658;BME280;20865;43.312;27.152;2023-11-21T09:03:51;100283.67;;;15.81;43.39
34658;BME280;20865;43.312;27.152;2023-11-21T09:06:20;100272.02;;;15.89;43.28
34658;BME280;20865;43.312;27.152;2023-11-21T09:08:47;100277.19;;;15.93;43.56
34658;BME280;20865;43.312;27.152;2023-11-21T09:11:15;100268.07;;;15.87;43.27
34658;BME280;20865;43.312;27.152;2023-11-21T09:13:42;100271.69;;;15.86;43.96
34658;BME280;20865;43.312;27.152;2023-11-21T09:16:10;100266.95;;;15.91;43.74
34658;BME280;20865;43.312;27.152;2023-11-21T09:18:38;100262.17;;;15.96;43.45
34658;BME280;20865;43.312;27.152;2023-11-21T09:21:06;100258.75;;;16.10;43.77
34658;BME280;20865;43.312;27.152;2023-11-21T09:23:35;100250.92;;;16.14;43.54
34658;BME280;20865;43.312;27.152;2023-11-21T09:26:03;100254.32;;;16.18;43.14
34658;BME280;20865;43.312;27.152;2023-11-21T09:28:32;100252.71;;;16.23;42.48
34658;BME280;20865;43.312;27.152;2023-11-21T09:30:59;100250.56;;;16.20;42.92
34658;BME280;20865;43.312;27.152;2023-11-21T09:33:28;100246.25;;;16.34;42.18
34658;BME280;20865;43.312;27.152;2023-11-21T09:35:57;100244.80;;;16.44;42.18
34658;BME280;20865;43.312;27.152;2023-11-21T09:38:24;100241.45;;;16.48;42.25
34658;BME280;20865;43.312;27.152;2023-11-21T09:40:52;100244.31;;;16.44;42.51
34658;BME280;20865;43.312;27.152;2023-11-21T09:43:21;100238.86;;;16.46;42.66
34658;BME280;20865;43.312;27.152;2023-11-21T09:46:00;100236.55;;;16.47;42.49
34658;BME280;20865;43.312;27.152;2023-11-21T09:48:20;100236.16;;;16.46;42.65
34658;BME280;20865;43.312;27.152;2023-11-21T09:50:48;100225.38;;;16.46;42.47
34658;BME280;20865;43.312;27.152;2023-11-21T09:53:19;100215.59;;;16.68;42.05
34658;BME280;20865;43.312;27.152;2023-11-21T09:55:52;100203.45;;;16.68;41.68
34658;BME280;20865;43.312;27.152;2023-11-21T09:58:20;100212.58;;;16.65;41.55
34658;BME280;20865;43.312;27.152;2023-11-21T10:00:52;100210.89;;;16.72;41.52
34658;BME280;20865;43.312;27.152;2023-11-21T10:03:20;100206.54;;;16.78;41.34
34658;BME280;20865;43.312;27.152;2023-11-21T10:05:49;100204.70;;;16.78;41.27
34658;BME280;20865;43.312;27.152;2023-11-21T10:08:20;100204.53;;;16.81;41.03
34658;BME280;20865;43.312;27.152;2023-11-21T10:10:53;100197.55;;;16.93;40.95
34658;BME280;20865;43.312;27.152;2023-11-21T10:13:21;100200.73;;;16.93;40.69
34658;BME280;20865;43.312;27.152;2023-11-21T10:15:50;100197.09;;;17.01;40.64
34658;BME280;20865;43.312;27.152;2023-11-21T10:18:20;100189.97;;;17.00;40.79
34658;BME280;20865;43.312;27.152;2023-11-21T10:20:49;100191.67;;;16.94;41.34
34658;BME280;20865;43.312;27.152;2023-11-21T10:23:21;100192.56;;;17.01;41.54
34658;BME280;20865;43.312;27.152;2023-11-21T10:25:49;100187.61;;;17.09;41.81
34658;BME280;20865;43.312;27.152;2023-11-21T10:28:18;100184.38;;;17.26;41.25
34658;BME280;20865;43.312;27.152;2023-11-21T10:30:47;100174.88;;;17.34;41.51
34658;BME280;20865;43.312;27.152;2023-11-21T10:33:14;100175.95;;;17.46;41.51
34658;BME280;20865;43.312;27.152;2023-11-21T10:35:44;100166.73;;;17.50;42.00
34658;BME280;20865;43.312;27.152;2023-11-21T10:38:16;100169.84;;;17.73;40.97
34658;BME280;20865;43.312;27.152;2023-11-21T10:40:45;100165.34;;;17.80;40.70
34658;BME280;20865;43.312;27.152;2023-11-21T10:43:13;100162.75;;;17.86;40.34
34658;BME280;20865;43.312;27.152;2023-11-21T10:45:43;100162.83;;;17.92;39.21
34658;BME280;20865;43.312;27.152;2023-11-21T10:48:13;100168.23;;;18.06;39.01
34658;BME280;20865;43.312;27.152;2023-11-21T10:50:45;100164.66;;;18.13;39.02
34658;BME280;20865;43.312;27.152;2023-11-21T10:53:13;100155.59;;;18.21;39.15
34658;BME280;20865;43.312;27.152;2023-11-21T10:55:41;100154.80;;;18.26;39.14
34658;BME280;20865;43.312;27.152;2023-11-21T10:58:11;100150.25;;;18.33;39.40
34658;BME280;20865;43.312;27.152;2023-11-21T11:00:41;100143.89;;;18.35;38.87
34658;BME280;20865;43.312;27.152;2023-11-21T11:03:11;100140.78;;;18.33;38.99
34658;BME280;20865;43.312;27.152;2023-11-21T11:05:41;100140.23;;;18.28;38.85
34658;BME280;20865;43.312;27.152;2023-11-21T11:08:12;100131.44;;;18.32;39.39
34658;BME280;20865;43.312;27.152;2023-11-21T11:10:45;100133.27;;;18.39;39.85
34658;BME280;20865;43.312;27.152;2023-11-21T11:13:14;100128.30;;;18.52;40.00
34658;BME280;20865;43.312;27.152;2023-11-21T11:15:43;100121.91;;;18.53;40.00
34658;BME280;20865;43.312;27.152;2023-11-21T11:18:12;100118.20;;;18.62;39.70
34658;BME280;20865;43.312;27.152;2023-11-21T11:20:42;100119.36;;;18.72;39.79
34658;BME280;20865;43.312;27.152;2023-11-21T11:23:34;100112.39;;;18.68;39.79
34658;BME280;20865;43.312;27.152;2023-11-21T11:28:40;100097.72;;;18.65;39.66
34658;BME280;20865;43.312;27.152;2023-11-21T11:31:30;100098.90;;;18.61;39.58
34658;BME280;20865;43.312;27.152;2023-11-21T11:37:01;100101.34;;;18.51;39.70
34658;BME280;20865;43.312;27.152;2023-11-21T11:39:37;100103.12;;;18.45;38.58
34658;BME280;20865;43.312;27.152;2023-11-21T11:42:07;100105.14;;;18.48;38.62
34658;BME280;20865;43.312;27.152;2023-11-21T11:47:29;100089.86;;;18.82;38.41
34658;BME280;20865;43.312;27.152;2023-11-21T11:50:03;100099.91;;;18.87;38.43
34658;BME280;20865;43.312;27.152;2023-11-21T11:52:35;100096.22;;;18.88;38.31
34658;BME280;20865;43.312;27.152;2023-11-21T11:55:05;100099.67;;;18.90;38.16
34658;BME280;20865;43.312;27.152;2023-11-21T11:57:35;100104.09;;;18.98;37.95
34658;BME280;20865;43.312;27.152;2023-11-21T12:00:19;100099.30;;;19.09;38.08
34658;BME280;20865;43.312;27.152;2023-11-21T12:02:49;100093.72;;;19.17;38.01
34658;BME280;20865;43.312;27.152;2023-11-21T12:05:19;100090.11;;;19.24;37.84
34658;BME280;20865;43.312;27.152;2023-11-21T12:07:52;100084.61;;;19.25;38.12
34658;BME280;20865;43.312;27.152;2023-11-21T12:10:25;100086.21;;;19.28;38.39
34658;BME280;20865;43.312;27.152;2023-11-21T12:15:25;100064.34;;;19.31;38.14
34658;BME280;20865;43.312;27.152;2023-11-21T12:17:55;100073.77;;;19.25;38.58
34658;BME280;20865;43.312;27.152;2023-11-21T12:20:24;100064.19;;;19.14;39.17
34658;BME280;20865;43.312;27.152;2023-11-21T12:22:53;100065.95;;;19.21;39.45
34658;BME280;20865;43.312;27.152;2023-11-21T12:25:26;100057.03;;;19.26;39.30
34658;BME280;20865;43.312;27.152;2023-11-21T12:27:58;100056.98;;;19.33;39.21
34658;BME280;20865;43.312;27.152;2023-11-21T12:30:27;100057.19;;;19.56;39.60
34658;BME280;20865;43.312;27.152;2023-11-21T12:32:58;100055.19;;;19.26;40.29
34658;BME280;20865;43.312;27.152;2023-11-21T12:35:29;100048.91;;;19.26;40.50
34658;BME280;20865;43.312;27.152;2023-11-21T12:37:57;100044.20;;;19.22;40.93
34658;BME280;20865;43.312;27.152;2023-11-21T12:40:25;100041.83;;;19.18;41.33
34658;BME280;20865;43.312;27.152;2023-11-21T12:42:58;100036.22;;;19.14;41.71
34658;BME280;20865;43.312;27.152;2023-11-21T12:45:28;100043.39;;;19.15;41.67
34658;BME280;20865;43.312;27.152;2023-11-21T12:48:05;100041.96;;;19.09;41.79
34658;BME280;20865;43.312;27.152;2023-11-21T12:50:39;100035.84;;;19.13;41.74
34658;BME280;20865;43.312;27.152;2023-11-21T12:53:09;100033.47;;;19.08;41.72
34658;BME280;20865;43.312;27.152;2023-11-21T12:55:39;100027.77;;;19.06;41.73
34658;BME280;20865;43.312;27.152;2023-11-21T12:58:09;100026.47;;;18.98;42.00
34658;BME280;20865;43.312;27.152;2023-11-21T13:00:47;100029.01;;;18.94;42.34
34658;BME280;20865;43.312;27.152;2023-11-21T13:03:16;100019.54;;;18.94;42.59